Time;durP1;ratioP1;P1;durP2;ratioP2;P2;SDS_P1;SDS_P2;PMS_P1;PMS_P2;Temp;Humidity;BMP_temperature;BMP_pressure;BME280_temperature;BME280_humidity;BME280_pressure;Samples;Min_cycle;Max_cycle;Signal;HPM_P1;HPM_P2
2022/03/25 00:01:52;;;;;;;7.77;4.43;;;1.90;99.90;;;;;;5082075;28;20722;-81
2022/03/25 00:04:18;;;;;;;10.13;5.53;;;1.90;99.90;;;;;;5080959;28;20284;-80
2022/03/25 00:06:44;;;;;;;9.13;4.90;;;1.90;99.90;;;;;;5071966;28;20266;-77
2022/03/25 00:09:09;;;;;;;9.57;5.33;;;1.80;99.90;;;;;;5070924;28;20708;-79
2022/03/25 00:11:35;;;;;;;7.57;4.60;;;1.80;99.90;;;;;;5071770;28;20558;-77
2022/03/25 00:14:01;;;;;;;9.30;5.43;;;1.80;99.90;;;;;;5071673;28;20192;-77
2022/03/25 00:16:27;;;;;;;7.83;4.60;;;1.80;99.90;;;;;;5072281;28;20264;-78
2022/03/25 00:18:54;;;;;;;7.00;3.90;;;1.70;99.90;;;;;;5069950;28;20177;-78
2022/03/25 00:21:20;;;;;;;7.80;4.63;;;1.80;99.90;;;;;;5070976;28;20207;-78
2022/03/25 00:23:45;;;;;;;7.90;4.83;;;1.80;99.90;;;;;;5081185;28;20196;-78
2022/03/25 00:26:11;;;;;;;11.50;5.87;;;1.70;99.90;;;;;;5071460;28;20646;-79
2022/03/25 00:28:37;;;;;;;6.80;4.27;;;1.70;99.90;;;;;;5081937;28;20188;-80
2022/03/25 00:31:06;;;;;;;8.63;4.23;;;1.70;99.90;;;;;;5071546;28;20554;-78
2022/03/25 00:33:33;;;;;;;10.07;5.23;;;1.60;99.90;;;;;;5071482;28;20212;-78
2022/03/25 00:35:58;;;;;;;9.87;5.30;;;1.70;99.90;;;;;;5070675;28;20176;-81
2022/03/25 00:38:24;;;;;;;11.43;5.27;;;1.70;99.90;;;;;;5071298;28;20558;-80
2022/03/25 00:40:49;;;;;;;7.83;4.27;;;1.60;99.90;;;;;;5081793;28;20185;-79
2022/03/25 00:43:16;;;;;;;8.63;5.03;;;1.60;99.90;;;;;;5081517;28;20185;-77
2022/03/25 00:45:41;;;;;;;9.47;5.10;;;1.40;99.90;;;;;;5068936;28;20200;-80
2022/03/25 00:48:07;;;;;;;11.20;5.90;;;1.30;99.90;;;;;;5070146;28;20181;-80
2022/03/25 00:50:33;;;;;;;7.63;4.37;;;1.20;99.90;;;;;;5080957;28;20204;-82
2022/03/25 00:52:59;;;;;;;7.87;4.87;;;1.10;99.90;;;;;;5081182;28;20269;-79
2022/03/25 00:55:25;;;;;;;8.53;4.83;;;1.20;99.90;;;;;;5081564;28;20700;-77
2022/03/25 00:57:51;;;;;;;8.43;4.67;;;1.20;99.90;;;;;;5070442;28;20184;-78
2022/03/25 01:00:17;;;;;;;9.03;4.90;;;1.10;99.90;;;;;;5081497;28;20193;-79
2022/03/25 01:02:42;;;;;;;9.10;5.07;;;1.20;99.90;;;;;;5070008;28;20196;-79
2022/03/25 01:05:08;;;;;;;9.37;5.67;;;1.40;99.90;;;;;;5070470;28;20200;-78
2022/03/25 01:07:36;;;;;;;10.27;6.10;;;1.40;99.90;;;;;;5069951;28;20211;-79
2022/03/25 01:10:03;;;;;;;9.57;4.50;;;1.30;99.90;;;;;;5070805;28;20267;-80
2022/03/25 01:12:28;;;;;;;8.97;5.30;;;1.20;99.90;;;;;;5081580;28;20209;-79
2022/03/25 01:14:54;;;;;;;8.97;5.00;;;1.10;99.90;;;;;;5069313;28;20234;-77
2022/03/25 01:17:20;;;;;;;7.93;5.07;;;1.00;99.90;;;;;;5072142;28;20256;-77
2022/03/25 01:19:46;;;;;;;8.47;4.93;;;1.00;99.90;;;;;;5069437;28;20173;-79
2022/03/25 01:22:12;;;;;;;11.00;5.07;;;0.90;99.90;;;;;;5070461;28;20209;-80
2022/03/25 01:24:38;;;;;;;8.93;4.77;;;1.00;99.90;;;;;;5070155;28;20240;-82
2022/03/25 01:27:04;;;;;;;9.90;4.83;;;1.00;99.90;;;;;;5087471;28;20245;-76
2022/03/25 01:29:30;;;;;;;7.77;4.97;;;0.90;99.90;;;;;;5090972;28;20180;-76
2022/03/25 01:31:55;;;;;;;7.57;5.00;;;0.90;99.90;;;;;;5086377;28;20212;-77
2022/03/25 01:34:21;;;;;;;11.27;5.53;;;0.80;99.90;;;;;;5081557;28;20205;-77
2022/03/25 01:36:47;;;;;;;9.17;5.07;;;0.70;99.90;;;;;;5081583;28;20177;-78
2022/03/25 01:39:13;;;;;;;8.67;4.73;;;0.70;99.90;;;;;;5071169;28;21000;-81
2022/03/25 01:41:39;;;;;;;9.83;4.63;;;0.70;99.90;;;;;;5080151;28;20269;-80
2022/03/25 01:44:05;;;;;;;10.40;5.10;;;0.70;99.90;;;;;;5070174;28;20205;-77
2022/03/25 01:46:32;;;;;;;10.73;4.73;;;0.70;99.90;;;;;;5069957;28;20259;-78
2022/03/25 01:48:57;;;;;;;7.20;4.93;;;0.90;99.90;;;;;;5078698;28;20180;-79
2022/03/25 01:51:29;;;;;;;9.33;5.43;;;0.80;99.90;;;;;;5080744;28;20262;-80
2022/03/25 01:54:20;;;;;;;6.90;4.40;;;0.70;99.90;;;;;;5068807;28;20587;-79
2022/03/25 01:56:52;;;;;;;9.97;5.43;;;0.80;99.90;;;;;;5077891;28;20243;-79
2022/03/25 01:59:18;;;;;;;9.57;5.30;;;0.70;99.90;;;;;;5069144;28;20177;-82
2022/03/25 02:01:43;;;;;;;10.30;5.27;;;0.80;99.90;;;;;;5068979;28;20173;-79
2022/03/25 02:04:09;;;;;;;12.03;5.10;;;0.70;99.90;;;;;;5081594;28;20245;-82
2022/03/25 02:06:34;;;;;;;11.40;5.87;;;0.80;99.90;;;;;;5080270;28;20757;-78
2022/03/25 02:09:00;;;;;;;11.10;5.53;;;0.70;99.90;;;;;;5079880;28;20177;-81
2022/03/25 02:11:28;;;;;;;9.37;4.60;;;0.60;99.90;;;;;;5069659;28;20648;-82
2022/03/25 02:13:53;;;;;;;10.80;5.13;;;0.70;99.90;;;;;;5069271;28;20732;-79
2022/03/25 02:16:19;;;;;;;9.90;5.47;;;0.60;99.90;;;;;;5079911;28;20181;-79
2022/03/25 02:18:45;;;;;;;9.70;5.20;;;0.50;99.90;;;;;;5079577;28;20181;-81
2022/03/25 02:21:11;;;;;;;9.27;5.00;;;0.50;99.90;;;;;;5069411;28;20210;-79
2022/03/25 02:23:36;;;;;;;10.93;5.20;;;0.50;99.90;;;;;;5077752;28;20304;-79
2022/03/25 02:26:02;;;;;;;10.33;4.90;;;0.40;99.90;;;;;;5078091;28;20199;-80
2022/03/25 02:28:28;;;;;;;9.80;5.40;;;0.50;99.90;;;;;;5077819;28;20185;-80
2022/03/25 02:30:54;;;;;;;9.77;5.37;;;0.50;99.90;;;;;;5066284;28;20188;-79
2022/03/25 02:33:19;;;;;;;9.90;5.33;;;0.50;99.90;;;;;;5065269;28;20219;-78
2022/03/25 02:35:48;;;;;;;10.37;5.30;;;0.50;99.90;;;;;;5065046;28;20189;-79
2022/03/25 02:38:17;;;;;;;9.40;5.40;;;0.40;99.90;;;;;;5066334;28;20185;-79
2022/03/25 02:40:43;;;;;;;9.90;5.97;;;0.30;99.90;;;;;;5078916;28;20695;-81
2022/03/25 02:43:13;;;;;;;7.97;4.90;;;0.30;99.90;;;;;;5068666;28;20272;-82
2022/03/25 02:45:40;;;;;;;8.97;5.27;;;0.20;99.90;;;;;;5067733;28;20189;-82
2022/03/25 02:48:07;;;;;;;9.73;5.50;;;0.30;99.90;;;;;;5068206;28;20193;-82
2022/03/25 02:50:32;;;;;;;8.93;5.10;;;0.30;99.90;;;;;;5068600;28;20185;-79
2022/03/25 02:52:59;;;;;;;11.27;5.40;;;0.30;99.90;;;;;;5079712;28;20683;-80
2022/03/25 02:55:25;;;;;;;10.40;5.43;;;0.20;99.90;;;;;;5067475;28;20267;-78
2022/03/25 02:57:52;;;;;;;12.00;6.00;;;0.40;99.90;;;;;;5079988;28;20181;-78
2022/03/25 03:00:19;;;;;;;9.13;4.93;;;0.30;99.90;;;;;;5068383;28;20188;-80
2022/03/25 03:02:47;;;;;;;9.53;5.67;;;0.30;99.90;;;;;;5079038;28;20192;-80
2022/03/25 03:05:13;;;;;;;11.33;5.87;;;0.30;99.90;;;;;;5077419;28;20218;-79
2022/03/25 03:07:39;;;;;;;12.40;5.53;;;0.30;99.90;;;;;;5068534;28;20275;-79
2022/03/25 03:10:06;;;;;;;10.93;5.67;;;0.20;99.90;;;;;;5079783;28;20212;-81
2022/03/25 03:12:32;;;;;;;11.10;5.47;;;0.20;99.90;;;;;;5078170;28;20205;-81
2022/03/25 03:14:59;;;;;;;11.67;5.90;;;0.20;99.90;;;;;;5077832;28;20709;-79
2022/03/25 03:17:25;;;;;;;9.47;5.63;;;0.30;99.90;;;;;;5079441;28;20185;-80
2022/03/25 03:19:51;;;;;;;13.40;6.10;;;0.20;99.90;;;;;;5070357;28;20680;-78
2022/03/25 03:22:17;;;;;;;9.03;5.47;;;0.20;99.90;;;;;;5069189;28;20192;-81
2022/03/25 03:24:43;;;;;;;9.77;6.03;;;0.20;99.90;;;;;;5067712;28;20216;-81
2022/03/25 03:27:10;;;;;;;10.40;5.50;;;0.10;99.90;;;;;;5069122;28;20188;-78
2022/03/25 03:29:36;;;;;;;8.43;5.20;;;0.10;99.90;;;;;;5079023;28;20223;-80
2022/03/25 03:32:02;;;;;;;9.90;6.03;;;0.10;99.90;;;;;;5075538;28;21142;-78
2022/03/25 03:34:28;;;;;;;9.53;5.57;;;0.00;99.90;;;;;;5078825;28;20285;-80
2022/03/25 03:36:54;;;;;;;9.30;4.83;;;0.10;99.90;;;;;;5076492;28;20284;-78
2022/03/25 03:39:19;;;;;;;9.57;5.43;;;0.00;99.90;;;;;;5068675;28;20599;-81
2022/03/25 03:41:45;;;;;;;12.27;6.10;;;-0.10;99.90;;;;;;5079689;28;20177;-78
2022/03/25 03:44:10;;;;;;;10.87;5.70;;;-0.20;99.90;;;;;;5078508;28;20212;-81
2022/03/25 03:46:36;;;;;;;10.77;5.70;;;-0.40;99.90;;;;;;5078465;28;20651;-79
2022/03/25 03:49:03;;;;;;;10.57;5.87;;;-0.40;99.90;;;;;;5068486;28;20195;-78
2022/03/25 03:51:29;;;;;;;10.57;5.43;;;-0.30;99.90;;;;;;5080436;28;20196;-79
2022/03/25 03:53:55;;;;;;;12.13;6.40;;;-0.30;99.90;;;;;;5077691;28;20214;-79
2022/03/25 03:56:22;;;;;;;12.70;6.40;;;-0.20;99.90;;;;;;5079373;28;20174;-79
2022/03/25 03:58:47;;;;;;;13.57;6.63;;;-0.20;99.90;;;;;;5076938;28;20204;-79
2022/03/25 04:01:13;;;;;;;12.23;6.73;;;-0.20;99.90;;;;;;5077832;28;20264;-82
2022/03/25 04:03:39;;;;;;;11.17;6.27;;;-0.10;99.90;;;;;;5066314;28;20710;-80
2022/03/25 04:06:05;;;;;;;10.00;6.43;;;-0.30;99.90;;;;;;5077670;28;20303;-78
2022/03/25 04:08:31;;;;;;;10.33;5.70;;;-0.20;99.90;;;;;;5068067;28;20181;-80
2022/03/25 04:10:58;;;;;;;10.17;6.10;;;-0.20;99.90;;;;;;5067932;28;20189;-80
2022/03/25 04:13:24;;;;;;;12.80;6.30;;;-0.30;99.90;;;;;;5076770;28;20225;-78
2022/03/25 04:15:50;;;;;;;12.30;6.60;;;-0.30;99.90;;;;;;5075592;28;20294;-80
2022/03/25 04:18:16;;;;;;;14.70;6.30;;;-0.20;99.90;;;;;;5068638;28;20181;-78
2022/03/25 04:20:42;;;;;;;10.40;5.83;;;-0.30;99.90;;;;;;5068210;28;20260;-80
2022/03/25 04:23:07;;;;;;;11.83;5.80;;;-0.40;99.90;;;;;;5078527;28;20224;-78
2022/03/25 04:25:33;;;;;;;11.43;6.40;;;-0.50;99.90;;;;;;5077419;28;20193;-81
2022/03/25 04:27:59;;;;;;;12.17;5.93;;;-0.40;99.90;;;;;;5068540;28;20185;-79
2022/03/25 04:30:26;;;;;;;12.07;5.63;;;-0.30;99.90;;;;;;5077031;28;20617;-77
2022/03/25 04:32:52;;;;;;;13.10;6.77;;;-0.40;99.90;;;;;;5074549;28;20212;-79
2022/03/25 04:35:19;;;;;;;11.53;6.60;;;-0.40;99.90;;;;;;5067550;28;20701;-80
2022/03/25 04:37:45;;;;;;;12.40;5.77;;;-0.40;99.90;;;;;;5069302;28;20385;-79
2022/03/25 04:40:12;;;;;;;8.70;5.67;;;-0.40;99.90;;;;;;5080263;28;20542;-80
2022/03/25 04:42:38;;;;;;;10.43;6.10;;;-0.40;99.90;;;;;;5081075;28;20595;-78
2022/03/25 04:45:05;;;;;;;12.00;7.13;;;-0.50;99.90;;;;;;5071694;28;20204;-78
2022/03/25 04:47:30;;;;;;;10.23;6.27;;;-0.50;99.90;;;;;;5083352;28;20180;-78
2022/03/25 04:49:56;;;;;;;11.80;6.23;;;-0.50;99.90;;;;;;5072173;28;20236;-81
2022/03/25 04:52:21;;;;;;;11.27;5.77;;;-0.60;99.90;;;;;;5082140;28;20206;-79
2022/03/25 04:54:47;;;;;;;10.87;5.87;;;-0.50;99.90;;;;;;5081716;28;20200;-79
2022/03/25 04:57:13;;;;;;;10.30;5.87;;;-0.40;99.90;;;;;;5083929;28;20552;-80
2022/03/25 04:59:38;;;;;;;8.80;5.40;;;-0.30;99.90;;;;;;5083248;28;20252;-78
2022/03/25 05:02:04;;;;;;;15.83;7.00;;;-0.30;99.90;;;;;;5071294;28;20178;-79
2022/03/25 05:04:29;;;;;;;14.30;7.80;;;-0.50;99.90;;;;;;5070785;28;20213;-77
2022/03/25 05:06:55;;;;;;;14.07;8.13;;;-0.60;99.90;;;;;;5071437;28;20189;-79
2022/03/25 05:09:20;;;;;;;12.70;7.47;;;-0.50;99.90;;;;;;5071978;28;20361;-80
2022/03/25 05:11:46;;;;;;;14.37;6.50;;;-0.40;99.90;;;;;;5071115;28;20264;-77
2022/03/25 05:14:11;;;;;;;14.43;6.67;;;-0.60;99.90;;;;;;5071132;28;20220;-77
2022/03/25 05:16:37;;;;;;;11.77;6.27;;;-0.70;99.90;;;;;;5071311;28;20181;-79
2022/03/25 05:19:03;;;;;;;12.00;6.70;;;-0.60;99.90;;;;;;5081021;28;20238;-78
2022/03/25 05:21:29;;;;;;;12.30;6.33;;;-0.60;99.90;;;;;;5082690;28;20183;-80
2022/03/25 05:23:54;;;;;;;11.93;6.00;;;-0.50;99.90;;;;;;5082168;28;20212;-80
2022/03/25 05:26:20;;;;;;;11.40;6.30;;;-0.50;99.90;;;;;;5082691;28;20666;-79
2022/03/25 05:28:46;;;;;;;14.17;7.27;;;-0.40;99.90;;;;;;5076887;28;20183;-80
2022/03/25 05:31:12;;;;;;;12.63;6.20;;;-0.50;99.90;;;;;;5076401;28;20221;-78
2022/03/25 05:33:37;;;;;;;10.17;5.83;;;-0.40;99.90;;;;;;5076999;28;20295;-79
2022/03/25 05:36:03;;;;;;;12.67;6.87;;;-0.30;99.90;;;;;;5073656;28;20546;-80
2022/03/25 05:38:30;;;;;;;10.00;6.40;;;-0.20;99.90;;;;;;5078730;28;20181;-77
2022/03/25 05:40:56;;;;;;;12.70;6.93;;;-0.10;99.90;;;;;;5071374;28;20659;-77
2022/03/25 05:43:22;;;;;;;12.37;6.80;;;-0.10;99.90;;;;;;5069595;28;20227;-78
2022/03/25 05:45:48;;;;;;;12.93;6.43;;;-0.20;99.90;;;;;;5066142;28;20542;-77
2022/03/25 05:48:13;;;;;;;12.97;6.53;;;-0.20;99.90;;;;;;5078749;28;20169;-78
2022/03/25 05:50:39;;;;;;;10.47;6.30;;;0.10;99.90;;;;;;5074519;28;20192;-80
2022/03/25 05:53:05;;;;;;;14.20;7.13;;;0.00;99.90;;;;;;5082607;28;20291;-81
2022/03/25 05:55:32;;;;;;;10.20;6.40;;;0.10;99.90;;;;;;5079938;28;20412;-80
2022/03/25 05:57:58;;;;;;;13.03;7.20;;;0.20;99.90;;;;;;5067584;28;20173;-78
2022/03/25 06:00:23;;;;;;;13.03;7.87;;;0.30;99.90;;;;;;5066906;28;20184;-81
2022/03/25 06:02:49;;;;;;;14.20;7.30;;;0.40;99.90;;;;;;5065122;28;20280;-80
2022/03/25 06:05:15;;;;;;;20.57;7.33;;;0.30;99.90;;;;;;5082939;28;20200;-81
2022/03/25 06:07:44;;;;;;;14.33;6.93;;;0.40;99.90;;;;;;5073916;28;20177;-80
2022/03/25 06:10:11;;;;;;;13.57;6.83;;;0.50;99.90;;;;;;5068144;28;20223;-81
2022/03/25 06:12:39;;;;;;;12.83;6.60;;;0.60;99.90;;;;;;5069956;28;20608;-78
2022/03/25 06:15:05;;;;;;;15.00;7.07;;;0.50;99.90;;;;;;5074967;28;20220;-80
2022/03/25 06:17:30;;;;;;;15.60;7.13;;;0.60;99.90;;;;;;5069684;28;20241;-81
2022/03/25 06:19:56;;;;;;;11.67;6.57;;;0.80;99.90;;;;;;5069463;28;20213;-80
2022/03/25 06:22:25;;;;;;;16.10;7.47;;;1.00;99.90;;;;;;5081794;28;20185;-82
2022/03/25 06:24:52;;;;;;;14.70;7.30;;;1.10;99.90;;;;;;5073986;28;20216;-84
2022/03/25 06:27:18;;;;;;;12.63;6.70;;;1.10;99.90;;;;;;5064885;28;20188;-79
2022/03/25 06:29:43;;;;;;;16.47;7.63;;;1.30;99.90;;;;;;5062972;28;20185;-80
2022/03/25 06:32:09;;;;;;;14.37;6.37;;;1.40;99.90;;;;;;5060918;28;20209;-76
2022/03/25 06:34:36;;;;;;;13.83;7.27;;;1.50;99.90;;;;;;5071201;28;20578;-77
2022/03/25 06:37:03;;;;;;;12.93;7.10;;;1.60;99.90;;;;;;5059126;28;21216;-77
2022/03/25 06:39:29;;;;;;;14.43;7.07;;;1.70;99.90;;;;;;5067009;28;20204;-78
2022/03/25 06:41:55;;;;;;;13.57;6.90;;;1.90;99.90;;;;;;5060649;28;20276;-79
2022/03/25 06:44:20;;;;;;;12.93;6.63;;;2.00;99.90;;;;;;5063387;28;20213;-74
2022/03/25 06:46:46;;;;;;;16.83;7.30;;;2.20;99.90;;;;;;5058258;28;20196;-78
2022/03/25 06:49:12;;;;;;;12.67;7.40;;;2.30;99.90;;;;;;5068150;28;20582;-77
2022/03/25 06:51:39;;;;;;;11.77;6.80;;;2.40;99.90;;;;;;5058859;28;20559;-75
2022/03/25 06:54:04;;;;;;;15.90;8.80;;;2.60;99.90;;;;;;5066391;28;20212;-78
2022/03/25 06:56:34;;;;;;;21.67;10.27;;;2.80;99.90;;;;;;5068033;28;20620;-78
2022/03/25 06:59:00;;;;;;;14.53;7.83;;;2.90;99.90;;;;;;5065828;28;20192;-79
2022/03/25 07:01:26;;;;;;;17.50;8.20;;;3.10;99.90;;;;;;5059159;28;20606;-79
2022/03/25 07:03:52;;;;;;;15.87;7.50;;;3.30;99.90;;;;;;5063875;28;20313;-76
2022/03/25 07:06:23;;;;;;;14.17;7.87;;;3.50;99.90;;;;;;5063989;28;20173;-77
2022/03/25 07:08:53;;;;;;;15.37;8.17;;;3.50;99.90;;;;;;5067447;28;20185;-79
2022/03/25 07:11:19;;;;;;;16.57;9.30;;;3.60;99.90;;;;;;5058917;28;20250;-78
2022/03/25 07:13:46;;;;;;;17.97;8.90;;;3.70;99.90;;;;;;5062777;28;20707;-78
2022/03/25 07:16:11;;;;;;;14.83;8.00;;;3.90;99.90;;;;;;5065585;28;20204;-78
2022/03/25 07:18:37;;;;;;;15.77;8.13;;;4.10;99.90;;;;;;5062187;28;20666;-79
2022/03/25 07:21:04;;;;;;;13.60;7.90;;;4.20;99.90;;;;;;5070230;28;20651;-78
2022/03/25 07:23:30;;;;;;;13.87;8.00;;;4.30;99.90;;;;;;5066455;28;20585;-79
2022/03/25 07:25:56;;;;;;;16.87;8.93;;;4.50;99.90;;;;;;5059107;28;20215;-79
2022/03/25 07:28:21;;;;;;;15.80;9.30;;;4.80;99.90;;;;;;5058407;28;20185;-77
2022/03/25 07:30:47;;;;;;;15.10;8.93;;;5.00;99.90;;;;;;5071743;28;20208;-79
2022/03/25 07:33:12;;;;;;;15.70;9.10;;;5.20;99.90;;;;;;5058494;28;20213;-78
2022/03/25 07:35:38;;;;;;;15.93;8.97;;;5.60;99.90;;;;;;5058355;28;20178;-79
2022/03/25 07:38:06;;;;;;;15.57;9.20;;;5.80;99.90;;;;;;5060671;28;20211;-78
2022/03/25 07:40:32;;;;;;;16.57;9.37;;;6.00;99.90;;;;;;5061372;28;20177;-79
2022/03/25 07:42:58;;;;;;;16.30;8.90;;;6.20;99.90;;;;;;5061953;28;20543;-79
2022/03/25 07:45:24;;;;;;;13.53;9.07;;;6.40;99.90;;;;;;5064726;28;20228;-79
2022/03/25 07:47:50;;;;;;;15.00;8.80;;;6.60;99.90;;;;;;5064898;28;20722;-78
2022/03/25 07:50:18;;;;;;;16.20;9.67;;;6.80;99.90;;;;;;5075243;28;20253;-79
2022/03/25 07:52:46;;;;;;;16.17;9.93;;;6.90;99.90;;;;;;5064610;28;20378;-80
2022/03/25 07:55:12;;;;;;;16.03;9.10;;;7.20;99.90;;;;;;5065343;28;20212;-78
2022/03/25 07:57:39;;;;;;;19.97;11.27;;;7.40;99.90;;;;;;5064639;28;20192;-80
2022/03/25 08:00:11;;;;;;;18.23;10.00;;;7.50;99.90;;;;;;5075275;28;20177;-80
2022/03/25 08:02:43;;;;;;;19.73;9.83;;;7.70;99.90;;;;;;5064461;28;20550;-79
2022/03/25 08:05:10;;;;;;;19.03;10.47;;;8.00;99.90;;;;;;5073552;28;20602;-78
2022/03/25 08:07:48;;;;;;;20.70;10.17;;;8.10;99.90;;;;;;5064009;28;20189;-75
2022/03/25 08:10:16;;;;;;;15.17;9.13;;;8.20;99.90;;;;;;5075133;28;20184;-80
2022/03/25 08:12:43;;;;;;;17.63;9.50;;;8.30;99.90;;;;;;5064989;28;20256;-78
2022/03/25 08:15:09;;;;;;;20.50;9.80;;;8.40;99.90;;;;;;5065179;28;20201;-80
2022/03/25 08:17:50;;;;;;;15.27;9.67;;;8.50;99.90;;;;;;5079019;28;21161;-78
2022/03/25 08:20:33;;;;;;;16.30;10.20;;;8.60;99.90;;;;;;5067541;28;20178;-77
2022/03/25 08:22:59;;;;;;;15.70;8.83;;;8.80;99.90;;;;;;5079619;28;20177;-79
2022/03/25 08:28:12;;;;;;;14.77;8.87;;;8.80;99.90;;;;;;5078418;28;20212;-81
2022/03/25 08:30:37;;;;;;;15.70;9.73;;;9.00;99.90;;;;;;5067724;28;20280;-83
2022/03/25 08:33:04;;;;;;;17.13;9.27;;;9.20;99.90;;;;;;5066557;28;20864;-78
2022/03/25 08:35:30;;;;;;;17.47;9.53;;;9.20;99.90;;;;;;5066046;28;20188;-78
2022/03/25 08:37:57;;;;;;;18.73;9.60;;;9.40;99.90;;;;;;5066818;28;20214;-81
2022/03/25 08:40:25;;;;;;;14.77;9.00;;;9.60;99.90;;;;;;5067328;28;20318;-82
2022/03/25 08:42:50;;;;;;;16.30;9.57;;;9.70;99.90;;;;;;5079203;28;20276;-83
2022/03/25 08:45:17;;;;;;;15.90;9.83;;;9.80;99.90;;;;;;5066725;28;20295;-81
2022/03/25 08:47:43;;;;;;;16.90;10.10;;;10.00;99.90;;;;;;5067919;28;20178;-84
2022/03/25 08:50:13;;;;;;;16.50;9.43;;;10.10;99.90;;;;;;5067425;28;20209;-84
2022/03/25 08:52:44;;;;;;;16.87;10.13;;;10.30;99.90;;;;;;5066413;28;20201;-86
2022/03/25 08:55:11;;;;;;;16.83;10.43;;;10.40;99.90;;;;;;5067184;28;20204;-81
2022/03/25 08:57:38;;;;;;;15.20;9.60;;;10.50;99.90;;;;;;5066529;28;20187;-82
2022/03/25 09:00:06;;;;;;;19.73;10.50;;;10.80;99.90;;;;;;5067719;28;20185;-80
2022/03/25 09:02:32;;;;;;;19.00;10.03;;;10.80;99.90;;;;;;5066756;28;20184;-82
2022/03/25 09:04:58;;;;;;;17.83;10.00;;;10.90;99.90;;;;;;5076607;28;20580;-84
2022/03/25 09:07:23;;;;;;;21.80;10.60;;;11.00;99.90;;;;;;5067999;28;20189;-82
2022/03/25 09:09:49;;;;;;;18.17;10.53;;;11.20;99.90;;;;;;5067212;28;20188;-84
2022/03/25 09:12:14;;;;;;;17.17;10.97;;;11.40;99.90;;;;;;5067134;28;20219;-84
2022/03/25 09:14:40;;;;;;;16.87;10.53;;;11.50;99.90;;;;;;5066424;28;20205;-84
2022/03/25 09:17:06;;;;;;;15.70;11.20;;;11.80;99.90;;;;;;5078353;28;20189;-82
2022/03/25 09:19:31;;;;;;;16.67;10.10;;;11.90;99.90;;;;;;5067382;28;20178;-87
2022/03/25 09:21:57;;;;;;;17.43;10.93;;;12.10;99.90;;;;;;5077367;28;20174;-84
2022/03/25 09:24:23;;;;;;;20.53;12.23;;;12.40;99.90;;;;;;5066360;28;20193;-83
2022/03/25 09:26:48;;;;;;;15.47;10.37;;;12.50;99.90;;;;;;5066356;28;20181;-83
2022/03/25 09:29:14;;;;;;;17.30;10.53;;;12.70;99.90;;;;;;5075712;28;20270;-84
2022/03/25 09:31:42;;;;;;;16.23;10.23;;;12.80;99.90;;;;;;5066461;28;20180;-83
2022/03/25 09:36:53;;;;;;;23.38;11.75;;;13.10;99.90;;;;;;5076588;28;20231;-82
2022/03/25 09:39:19;;;;;;;19.05;11.23;;;13.40;99.90;;;;;;5065099;28;20169;-81
2022/03/25 09:41:46;;;;;;;18.38;10.65;;;13.50;99.90;;;;;;5063909;28;20268;-79
2022/03/25 09:44:16;;;;;;;19.92;12.40;;;13.60;99.90;;;;;;5071671;28;20205;-80
2022/03/25 09:46:42;;;;;;;19.30;11.65;;;13.80;99.30;;;;;;5072915;28;20686;-80
2022/03/25 09:49:09;;;;;;;18.02;11.52;;;14.10;99.00;;;;;;5061068;28;20181;-80
2022/03/25 09:51:36;;;;;;;18.73;11.70;;;14.20;98.30;;;;;;5059823;28;20181;-80
2022/03/25 09:54:02;;;;;;;18.20;12.00;;;14.20;97.80;;;;;;5072737;28;20228;-81
2022/03/25 09:56:28;;;;;;;16.85;12.02;;;14.40;97.10;;;;;;5063595;28;20183;-81
2022/03/25 09:58:53;;;;;;;20.30;12.73;;;14.50;97.00;;;;;;5064613;28;20558;-81
2022/03/25 10:01:20;;;;;;;21.48;12.10;;;14.40;96.30;;;;;;5064530;28;20181;-81
2022/03/25 10:03:46;;;;;;;20.92;12.85;;;14.60;96.10;;;;;;5066037;28;20268;-84
2022/03/25 10:06:12;;;;;;;20.00;12.23;;;14.60;95.20;;;;;;5065303;28;20398;-80
2022/03/25 10:08:39;;;;;;;20.52;12.50;;;14.50;95.40;;;;;;5065914;28;20185;-81
2022/03/25 10:11:24;;;;;;;21.38;13.52;;;14.80;95.60;;;;;;5066260;28;20191;-82
2022/03/25 10:14:20;;;;;;;21.40;13.98;;;15.10;93.80;;;;;;5074806;28;20213;-81
2022/03/25 10:16:48;;;;;;;23.63;14.52;;;15.10;93.40;;;;;;5076043;28;20177;-81
2022/03/25 10:19:22;;;;;;;24.33;15.02;;;15.20;92.30;;;;;;5065116;28;20165;-80
2022/03/25 10:21:57;;;;;;;22.92;14.70;;;15.10;91.70;;;;;;5063793;28;21025;-80
2022/03/25 10:24:35;;;;;;;24.75;14.70;;;15.10;91.90;;;;;;5063971;28;20216;-79
2022/03/25 10:27:06;;;;;;;21.52;13.73;;;15.10;91.90;;;;;;5066028;28;20219;-81
2022/03/25 10:29:32;;;;;;;23.02;14.60;;;15.30;91.40;;;;;;5065690;28;20165;-80
2022/03/25 10:32:20;;;;;;;25.95;15.95;;;15.40;91.60;;;;;;5073812;28;20184;-79
2022/03/25 10:35:09;;;;;;;22.45;14.43;;;15.40;91.10;;;;;;5076056;28;20251;-82
2022/03/25 10:37:58;;;;;;;24.05;14.25;;;15.40;91.70;;;;;;5064810;28;21055;-82
2022/03/25 10:40:24;;;;;;;20.60;14.52;;;15.50;91.10;;;;;;5054114;28;20213;-82
2022/03/25 10:43:06;;;;;;;26.88;15.48;;;15.60;90.60;;;;;;5066030;28;20188;-81
2022/03/25 10:45:31;;;;;;;21.92;14.75;;;15.40;90.90;;;;;;5064682;28;20199;-81
2022/03/25 10:48:17;;;;;;;28.33;17.17;;;15.50;90.90;;;;;;5064474;28;20911;-86
2022/03/25 10:51:07;;;;;;;23.75;16.20;;;15.60;90.70;;;;;;5065870;28;20192;-80
2022/03/25 10:53:37;;;;;;;20.20;14.75;;;15.90;90.10;;;;;;5076648;28;20652;-81
2022/03/25 10:56:06;;;;;;;24.17;15.85;;;16.00;90.70;;;;;;5063798;28;20173;-81
2022/03/25 10:58:34;;;;;;;23.65;15.90;;;16.00;88.90;;;;;;5063074;28;20173;-80
2022/03/25 11:01:04;;;;;;;24.67;16.88;;;15.80;89.00;;;;;;5062230;28;20180;-81
2022/03/25 11:03:29;;;;;;;28.42;16.50;;;16.00;88.40;;;;;;5067356;28;20557;-82
2022/03/25 11:05:56;;;;;;;24.77;16.20;;;15.90;88.80;;;;;;5072830;28;20189;-83
2022/03/25 11:08:21;;;;;;;23.67;16.42;;;15.60;88.00;;;;;;5065152;28;20488;-82
2022/03/25 11:10:47;;;;;;;26.60;16.02;;;15.60;89.40;;;;;;5066976;28;20425;-83
2022/03/25 11:13:13;;;;;;;24.50;16.38;;;15.60;89.00;;;;;;5064520;28;20272;-81
2022/03/25 11:15:39;;;;;;;26.25;17.33;;;15.80;89.00;;;;;;5074165;28;20612;-81
2022/03/25 11:18:06;;;;;;;24.52;15.18;;;15.80;87.90;;;;;;5062067;28;20671;-83
2022/03/25 11:20:32;;;;;;;25.45;16.45;;;15.90;87.90;;;;;;5063355;28;20180;-81
2022/03/25 11:23:18;;;;;;;24.63;17.17;;;15.90;85.80;;;;;;5075053;28;20647;-81
2022/03/25 11:25:51;;;;;;;25.92;15.82;;;15.70;86.60;;;;;;5061728;28;20197;-82
2022/03/25 11:28:19;;;;;;;23.25;14.55;;;15.90;86.80;;;;;;5061116;28;20177;-82
2022/03/25 11:30:56;;;;;;;24.98;15.55;;;15.90;86.70;;;;;;5061575;28;20188;-81
2022/03/25 11:33:22;;;;;;;22.15;14.45;;;16.10;86.10;;;;;;5064098;28;20222;-82
2022/03/25 11:35:48;;;;;;;22.80;15.25;;;16.30;84.20;;;;;;5071469;28;20188;-81
2022/03/25 11:38:18;;;;;;;26.13;15.13;;;16.10;84.00;;;;;;5060508;28;20178;-84
2022/03/25 11:40:52;;;;;;;28.52;15.13;;;16.00;85.00;;;;;;5060270;28;20270;-81
2022/03/25 11:43:27;;;;;;;22.10;15.45;;;16.10;83.60;;;;;;5071218;28;20177;-81
2022/03/25 11:45:59;;;;;;;22.85;15.38;;;16.00;83.90;;;;;;5061748;28;20192;-81
2022/03/25 11:48:25;;;;;;;23.33;15.23;;;16.20;84.80;;;;;;5060619;28;20178;-81
2022/03/25 11:50:52;;;;;;;24.63;15.77;;;16.10;84.20;;;;;;5068730;28;20199;-81
2022/03/25 11:53:22;;;;;;;24.83;15.68;;;15.90;83.20;;;;;;5075585;28;20216;-83
2022/03/25 11:56:10;;;;;;;26.08;15.63;;;16.00;84.30;;;;;;5074521;28;20181;-82
2022/03/25 11:58:56;;;;;;;23.08;15.27;;;16.20;83.80;;;;;;5072316;28;20192;-84
2022/03/25 12:01:23;;;;;;;20.67;14.38;;;16.30;82.70;;;;;;5071685;28;20248;-83
2022/03/25 12:03:57;;;;;;;25.42;14.85;;;16.40;81.80;;;;;;5067929;28;20703;-81
2022/03/25 12:06:47;;;;;;;19.95;13.95;;;16.20;80.10;;;;;;5069040;28;20455;-81
2022/03/25 12:09:18;;;;;;;21.73;14.15;;;16.30;80.60;;;;;;5065965;28;20185;-81
2022/03/25 12:11:57;;;;;;;21.40;13.55;;;16.50;80.20;;;;;;5076031;28;20292;-82
2022/03/25 12:14:31;;;;;;;22.05;14.40;;;16.50;80.40;;;;;;5067705;28;20201;-81
2022/03/25 12:17:12;;;;;;;20.95;13.45;;;16.30;80.40;;;;;;5067419;28;20184;-80
2022/03/25 12:19:45;;;;;;;22.15;13.27;;;16.30;78.50;;;;;;5067610;28;20482;-81
2022/03/25 12:22:23;;;;;;;20.70;13.95;;;16.30;78.50;;;;;;5067860;28;20562;-79
2022/03/25 12:24:54;;;;;;;18.88;12.95;;;16.40;78.60;;;;;;5067546;28;20221;-79
2022/03/25 12:27:21;;;;;;;20.05;13.88;;;16.50;79.00;;;;;;5064728;28;20611;-81
2022/03/25 12:29:48;;;;;;;20.30;12.90;;;16.40;78.80;;;;;;5067412;28;20265;-82
2022/03/25 12:32:15;;;;;;;21.92;13.10;;;16.60;77.70;;;;;;5068140;28;20216;-82
2022/03/25 12:34:44;;;;;;;21.17;13.15;;;16.50;77.40;;;;;;5067480;28;20202;-82
2022/03/25 12:37:13;;;;;;;23.27;13.30;;;16.50;78.40;;;;;;5079389;28;20522;-82
2022/03/25 12:39:38;;;;;;;19.65;12.15;;;16.70;77.20;;;;;;5067880;28;20268;-83
2022/03/25 12:42:18;;;;;;;22.35;14.20;;;16.90;76.80;;;;;;5083214;28;20197;-80
2022/03/25 12:44:53;;;;;;;23.17;14.73;;;17.00;77.30;;;;;;5066823;28;20203;-81
2022/03/25 12:47:42;;;;;;;19.83;14.45;;;16.90;77.20;;;;;;5066749;28;20177;-80
2022/03/25 12:50:09;;;;;;;23.73;14.35;;;16.90;77.70;;;;;;5075495;28;20261;-83